createdAt,value
2023-03-18T00:02:28.960Z,18.92
2023-03-18T00:05:16.408Z,22.02
2023-03-18T00:08:05.369Z,18.85
2023-03-18T00:10:53.103Z,20.13
2023-03-18T00:13:41.778Z,18.90
2023-03-18T00:16:29.427Z,19.92
2023-03-18T00:19:18.868Z,20.73
2023-03-18T00:22:06.487Z,20.77
2023-03-18T00:24:53.958Z,19.77
2023-03-18T00:27:41.989Z,19.50
2023-03-18T00:30:29.384Z,19.65
2023-03-18T00:33:17.956Z,21.17
2023-03-18T00:36:10.465Z,20.70
2023-03-18T00:38:58.485Z,22.95
2023-03-18T00:41:46.165Z,23.15
2023-03-18T00:44:34.001Z,23.55
2023-03-18T00:47:21.426Z,24.23
2023-03-18T00:50:10.386Z,26.25
2023-03-18T00:52:59.711Z,26.52
2023-03-18T00:55:48.010Z,26.23
2023-03-18T00:58:35.176Z,26.35
2023-03-18T01:01:23.008Z,26.05
2023-03-18T01:04:11.651Z,24.55
2023-03-18T01:06:58.958Z,24.83
2023-03-18T01:09:48.213Z,25.63
2023-03-18T01:12:35.581Z,24.17
2023-03-18T01:15:24.088Z,25.25
2023-03-18T01:18:12.462Z,26.15
2023-03-18T01:21:00.177Z,25.73
2023-03-18T01:23:51.600Z,25.42
2023-03-18T01:26:40.558Z,26.33
2023-03-18T01:29:28.186Z,25.83
2023-03-18T01:32:16.217Z,26.98
2023-03-18T01:35:03.510Z,26.73
2023-03-18T01:37:51.579Z,26.08
2023-03-18T01:40:41.978Z,26.50
2023-03-18T01:43:35.317Z,26.52
2023-03-18T01:46:37.130Z,26.15
2023-03-18T01:49:29.075Z,27.57
2023-03-18T01:52:22.006Z,27.60
2023-03-18T01:55:15.422Z,27.65
2023-03-18T01:58:07.492Z,27.88
2023-03-18T02:01:00.694Z,28.52
2023-03-18T02:03:51.185Z,27.73
2023-03-18T02:06:39.632Z,29.60
2023-03-18T02:09:26.776Z,30.38
2023-03-18T02:12:16.857Z,28.77
2023-03-18T02:15:09.159Z,30.33
2023-03-18T02:18:06.633Z,30.10
2023-03-18T02:21:07.373Z,30.13
2023-03-18T02:24:04.395Z,31.17
2023-03-18T02:26:57.481Z,29.85
2023-03-18T02:29:54.428Z,28.67
2023-03-18T02:32:43.925Z,30.47
2023-03-18T02:35:32.645Z,31.13
2023-03-18T02:38:21.448Z,29.87
2023-03-18T02:41:15.417Z,31.85
2023-03-18T02:44:03.437Z,30.98
2023-03-18T02:47:03.003Z,30.38
2023-03-18T02:49:51.633Z,31.60
2023-03-18T02:52:38.962Z,30.52
2023-03-18T02:55:27.295Z,30.83
2023-03-18T02:58:14.607Z,30.85
2023-03-18T03:01:08.278Z,30.90
2023-03-18T03:03:56.952Z,31.40
2023-03-18T03:06:45.312Z,29.58
2023-03-18T03:09:34.248Z,29.33
2023-03-18T03:12:21.487Z,28.13
2023-03-18T03:15:14.441Z,28.38
2023-03-18T03:18:07.688Z,28.48
2023-03-18T03:20:57.366Z,26.42
2023-03-18T03:23:44.895Z,27.48
2023-03-18T03:26:34.482Z,27.97
2023-03-18T03:29:21.793Z,26.80
2023-03-18T03:32:10.048Z,25.77
2023-03-18T03:34:57.063Z,23.88
2023-03-18T03:37:45.406Z,24.10
2023-03-18T03:40:32.542Z,22.55
2023-03-18T03:43:19.949Z,21.85
2023-03-18T03:46:08.059Z,22.90
2023-03-18T03:48:56.649Z,20.85
2023-03-18T03:51:47.291Z,20.27
2023-03-18T03:54:36.518Z,20.38
2023-03-18T03:57:24.969Z,20.05
2023-03-18T04:00:16.695Z,20.13
2023-03-18T04:03:09.552Z,20.08
2023-03-18T04:05:56.806Z,21.15
2023-03-18T04:08:47.408Z,20.08
2023-03-18T04:11:37.259Z,21.40
2023-03-18T04:14:25.099Z,20.63
2023-03-18T04:17:12.433Z,19.92
2023-03-18T04:19:59.830Z,20.25
2023-03-18T04:22:50.509Z,17.35
2023-03-18T04:25:40.429Z,18.98
2023-03-18T04:28:29.112Z,18.70
2023-03-18T04:31:16.758Z,22.65
2023-03-18T04:34:03.838Z,21.48
2023-03-18T04:36:51.366Z,21.30
2023-03-18T04:39:39.616Z,19.75
2023-03-18T04:42:30.847Z,19.58
2023-03-18T04:45:20.260Z,19.63
2023-03-18T04:48:07.616Z,19.92
2023-03-18T04:50:59.861Z,17.95
2023-03-18T04:53:49.931Z,17.97
2023-03-18T04:56:37.135Z,19.60
2023-03-18T04:59:24.191Z,20.73
2023-03-18T05:02:14.503Z,25.13
2023-03-18T05:05:02.155Z,25.52
2023-03-18T05:07:51.700Z,24.47
2023-03-18T05:10:41.447Z,25.65
2023-03-18T05:13:32.067Z,25.80
2023-03-18T05:16:20.243Z,25.60
2023-03-18T05:19:10.911Z,23.55
2023-03-18T05:22:04.201Z,25.75
2023-03-18T05:24:51.956Z,27.02
2023-03-18T05:27:41.901Z,25.57
2023-03-18T05:30:40.424Z,26.95
2023-03-18T05:33:29.978Z,27.67
2023-03-18T05:36:18.856Z,27.83
2023-03-18T05:39:16.264Z,28.07
2023-03-18T05:42:04.837Z,28.80
2023-03-18T05:44:52.062Z,27.70
2023-03-18T05:47:42.181Z,28.92
2023-03-18T05:50:33.288Z,28.15
2023-03-18T05:53:24.032Z,27.98
2023-03-18T05:56:18.974Z,26.80
2023-03-18T05:59:10.204Z,26.10
2023-03-18T06:02:03.437Z,25.90
2023-03-18T06:04:50.678Z,25.73
2023-03-18T06:07:38.003Z,25.42
2023-03-18T06:10:26.837Z,25.27
2023-03-18T06:13:15.377Z,25.42
2023-03-18T06:16:03.897Z,23.42
2023-03-18T06:18:51.294Z,24.77
2023-03-18T06:21:39.334Z,23.50
2023-03-18T06:24:26.554Z,24.65
2023-03-18T06:27:17.121Z,25.90
2023-03-18T06:30:07.781Z,24.33
2023-03-18T06:32:57.430Z,23.80
2023-03-18T06:35:49.417Z,24.25
2023-03-18T06:38:36.697Z,24.05
2023-03-18T06:41:24.325Z,24.15
2023-03-18T06:44:24.678Z,23.02
2023-03-18T06:47:14.976Z,23.10
2023-03-18T06:50:11.072Z,21.65
2023-03-18T06:52:58.234Z,22.43
2023-03-18T06:55:49.720Z,20.83
2023-03-18T06:58:40.941Z,20.67
2023-03-18T07:01:32.787Z,20.75
2023-03-18T07:04:23.869Z,20.43
2023-03-18T07:07:13.174Z,21.83
2023-03-18T07:10:02.520Z,20.40
2023-03-18T07:12:50.495Z,20.58
2023-03-18T07:15:39.317Z,19.60
2023-03-18T07:18:28.692Z,19.60
2023-03-18T07:21:16.856Z,19.85
2023-03-18T07:24:04.133Z,17.98
2023-03-18T07:26:52.323Z,18.48
2023-03-18T07:29:39.518Z,17.67
2023-03-18T07:32:26.645Z,18.33
2023-03-18T07:35:15.851Z,17.00
2023-03-18T07:38:06.143Z,17.30
2023-03-18T07:40:53.660Z,16.73
2023-03-18T07:43:41.274Z,15.43
2023-03-18T07:46:28.909Z,15.25
2023-03-18T07:49:16.735Z,15.10
2023-03-18T07:52:05.898Z,14.32
2023-03-18T07:54:54.041Z,12.75
2023-03-18T07:57:41.975Z,13.65
2023-03-18T08:00:29.642Z,12.98
2023-03-18T08:03:17.287Z,12.32
2023-03-18T08:06:05.706Z,12.60
2023-03-18T08:08:54.778Z,12.25
2023-03-18T08:11:42.519Z,13.63
2023-03-18T08:14:30.367Z,12.50
2023-03-18T08:17:17.454Z,12.55
2023-03-18T08:20:05.686Z,11.77
2023-03-18T08:22:53.659Z,10.88
2023-03-18T08:25:42.515Z,10.10
2023-03-18T08:28:30.286Z,10.15
2023-03-18T08:31:18.310Z,9.57
2023-03-18T08:34:05.918Z,8.55
2023-03-18T08:36:53.446Z,8.40
2023-03-18T08:39:41.371Z,7.97
2023-03-18T08:42:30.754Z,7.32
2023-03-18T08:45:19.416Z,7.30
2023-03-18T08:48:07.778Z,7.10
2023-03-18T08:50:55.989Z,7.17
2023-03-18T08:53:44.350Z,7.28
2023-03-18T08:56:31.661Z,7.10
2023-03-18T08:59:20.528Z,6.97
2023-03-18T09:02:07.609Z,6.87
2023-03-18T09:04:56.402Z,6.40
2023-03-18T09:07:43.786Z,6.10
2023-03-18T09:10:31.316Z,5.80
2023-03-18T09:13:19.291Z,6.17
2023-03-18T09:16:09.831Z,5.95
2023-03-18T09:18:57.427Z,5.70
2023-03-18T09:21:44.994Z,5.30
2023-03-18T09:24:33.008Z,5.00
2023-03-18T09:27:20.745Z,4.90
2023-03-18T09:30:09.469Z,4.60
2023-03-18T09:32:57.984Z,4.82
2023-03-18T09:35:45.882Z,4.60
2023-03-18T09:38:33.812Z,4.70
2023-03-18T09:41:35.454Z,4.60
2023-03-18T09:44:25.215Z,4.80
2023-03-18T09:47:27.215Z,4.70
2023-03-18T09:50:29.171Z,4.70
2023-03-18T09:53:23.935Z,5.25
2023-03-18T09:56:18.074Z,5.00
2023-03-18T09:59:08.959Z,5.00
2023-03-18T10:01:58.187Z,4.75
2023-03-18T10:04:49.752Z,4.85
2023-03-18T10:07:42.865Z,4.78
2023-03-18T10:10:33.076Z,4.90
2023-03-18T10:13:29.840Z,4.68
2023-03-18T10:16:22.979Z,4.43
2023-03-18T10:19:10.273Z,4.40
2023-03-18T10:22:09.551Z,4.07
2023-03-18T10:25:07.069Z,3.97
2023-03-18T10:28:06.958Z,4.40
2023-03-18T10:31:03.017Z,4.38
2023-03-18T10:33:58.758Z,4.25
2023-03-18T10:36:52.200Z,4.35
2023-03-18T10:39:41.299Z,4.00
2023-03-18T10:42:32.959Z,3.40
2023-03-18T10:45:24.790Z,3.53
2023-03-18T10:48:16.699Z,3.50
2023-03-18T10:51:13.775Z,3.20
2023-03-18T10:54:07.576Z,3.50
2023-03-18T10:56:55.971Z,3.33
2023-03-18T10:59:45.447Z,3.30
2023-03-18T11:02:36.483Z,3.05
2023-03-18T11:05:26.740Z,3.30
2023-03-18T11:08:34.981Z,3.00
2023-03-18T11:11:27.373Z,3.40
2023-03-18T11:14:18.203Z,2.85
2023-03-18T11:17:20.109Z,3.47
2023-03-18T11:20:21.054Z,3.33
2023-03-18T11:23:17.685Z,3.25
2023-03-18T11:26:09.857Z,3.47
2023-03-18T11:28:59.487Z,3.40
2023-03-18T11:31:51.991Z,3.40
2023-03-18T11:34:40.738Z,3.30
2023-03-18T11:37:31.891Z,3.63
2023-03-18T11:40:25.852Z,3.57
2023-03-18T11:43:20.627Z,3.90
2023-03-18T11:46:10.608Z,3.83
2023-03-18T11:48:58.338Z,3.78
2023-03-18T11:51:56.041Z,3.90
2023-03-18T11:55:10.832Z,3.75
2023-03-18T11:58:15.727Z,3.40
2023-03-18T12:01:08.122Z,3.53
2023-03-18T12:04:41.005Z,3.67
2023-03-18T12:07:50.826Z,3.40
2023-03-18T12:10:41.964Z,3.42
2023-03-18T12:13:39.815Z,3.25
2023-03-18T12:16:41.592Z,3.10
2023-03-18T12:20:12.946Z,3.53
2023-03-18T12:23:11.323Z,3.15
2023-03-18T12:26:08.468Z,3.20
2023-03-18T12:29:24.592Z,2.78
2023-03-18T12:32:25.028Z,2.55
2023-03-18T12:35:29.015Z,2.30
2023-03-18T12:38:43.343Z,2.50
2023-03-18T12:41:38.487Z,2.53
2023-03-18T12:44:39.233Z,2.63
2023-03-18T12:47:31.771Z,2.30
2023-03-18T12:50:25.448Z,2.30
2023-03-18T12:53:16.790Z,2.40
2023-03-18T12:56:11.488Z,2.50
2023-03-18T12:59:07.547Z,2.30
2023-03-18T13:02:17.554Z,2.38
2023-03-18T13:05:08.784Z,2.30
2023-03-18T13:08:19.743Z,2.20
2023-03-18T13:11:15.543Z,2.25
2023-03-18T13:14:06.896Z,2.60
2023-03-18T13:16:56.344Z,2.00
2023-03-18T13:19:44.592Z,2.20
2023-03-18T13:22:53.494Z,2.10
2023-03-18T13:25:51.733Z,2.00
2023-03-18T13:28:50.534Z,2.20
2023-03-18T13:31:49.730Z,2.30
2023-03-18T13:35:06.347Z,2.05
2023-03-18T13:38:18.322Z,2.28
2023-03-18T13:41:32.795Z,2.10
2023-03-18T13:44:26.462Z,2.20
2023-03-18T13:47:18.714Z,2.30
2023-03-18T13:50:08.901Z,2.42
2023-03-18T13:52:58.508Z,2.33
2023-03-18T13:55:50.407Z,1.90
2023-03-18T13:58:47.751Z,2.13
2023-03-18T14:01:49.180Z,1.95
2023-03-18T14:04:47.352Z,2.40
2023-03-18T14:07:47.890Z,2.50
2023-03-18T14:10:35.592Z,2.20
2023-03-18T14:13:29.278Z,2.20
2023-03-18T14:16:20.461Z,2.40
2023-03-18T14:19:19.114Z,2.30
2023-03-18T14:22:16.848Z,2.20
2023-03-18T14:25:40.038Z,2.67
2023-03-18T14:28:28.613Z,2.22
2023-03-18T14:31:27.821Z,2.22
2023-03-18T14:34:34.974Z,2.10
2023-03-18T14:37:30.823Z,2.20
2023-03-18T14:40:19.252Z,2.13
2023-03-18T14:43:12.298Z,2.10
2023-03-18T14:46:03.910Z,2.08
2023-03-18T14:48:54.705Z,2.40
2023-03-18T14:51:43.777Z,2.07
2023-03-18T14:54:36.971Z,2.30
2023-03-18T14:57:27.817Z,2.35
2023-03-18T15:00:19.203Z,2.10
2023-03-18T15:03:10.399Z,1.90
2023-03-18T15:06:00.554Z,2.20
2023-03-18T15:08:54.404Z,2.13
2023-03-18T15:11:44.439Z,2.05
2023-03-18T15:14:34.357Z,2.00
2023-03-18T15:17:21.669Z,2.17
2023-03-18T15:20:14.400Z,2.10
2023-03-18T15:23:10.103Z,2.13
2023-03-18T15:26:00.588Z,1.90
2023-03-18T15:28:48.728Z,2.13
2023-03-18T15:31:41.441Z,2.00
2023-03-18T15:34:31.702Z,2.25
2023-03-18T15:37:36.372Z,2.10
2023-03-18T15:40:31.428Z,2.20
2023-03-18T15:43:35.609Z,2.00
2023-03-18T15:46:27.546Z,1.92
2023-03-18T15:49:15.100Z,2.07
2023-03-18T15:52:04.057Z,2.00
2023-03-18T15:54:51.960Z,2.10
2023-03-18T15:57:40.716Z,3.47
2023-03-18T16:00:30.229Z,2.00
2023-03-18T16:03:21.925Z,2.88
2023-03-18T16:06:11.789Z,2.13
2023-03-18T16:08:58.874Z,2.25
2023-03-18T16:11:50.612Z,2.30
2023-03-18T16:14:42.050Z,2.25
2023-03-18T16:17:30.567Z,2.00
2023-03-18T16:20:20.670Z,1.87
2023-03-18T16:23:08.149Z,2.55
2023-03-18T16:25:57.026Z,2.07
2023-03-18T16:28:47.080Z,2.00
2023-03-18T16:31:35.408Z,2.38
2023-03-18T16:34:24.639Z,1.90
2023-03-18T16:37:20.608Z,2.10
2023-03-18T16:40:16.141Z,1.80
2023-03-18T16:43:03.206Z,2.03
2023-03-18T16:45:52.119Z,2.20
2023-03-18T16:48:39.671Z,2.20
2023-03-18T16:51:28.400Z,2.63
2023-03-18T16:54:21.122Z,2.00
2023-03-18T16:57:16.706Z,2.40
2023-03-18T17:00:07.262Z,3.05
2023-03-18T17:02:55.599Z,2.47
2023-03-18T17:05:42.815Z,2.03
2023-03-18T17:08:31.515Z,2.78
2023-03-18T17:11:21.359Z,2.15
2023-03-18T17:14:11.234Z,2.10
2023-03-18T17:17:00.633Z,2.15
2023-03-18T17:19:48.555Z,2.13
2023-03-18T17:22:36.113Z,2.25
2023-03-18T17:25:27.537Z,2.00
2023-03-18T17:28:20.332Z,2.50
2023-03-18T17:31:08.085Z,2.60
2023-03-18T17:33:55.928Z,2.20
2023-03-18T17:36:43.309Z,2.30
2023-03-18T17:39:31.082Z,2.20
2023-03-18T17:42:35.947Z,2.40
2023-03-18T17:45:28.385Z,2.22
2023-03-18T17:48:19.931Z,2.75
2023-03-18T17:51:12.680Z,2.88
2023-03-18T17:54:02.277Z,1.70
2023-03-18T17:56:49.848Z,1.00
2023-03-18T17:59:38.710Z,1.00
2023-03-18T18:02:26.275Z,0.90
2023-03-18T18:05:17.824Z,1.00
2023-03-18T18:08:09.953Z,0.90
2023-03-18T18:11:04.975Z,1.00
2023-03-18T18:13:56.470Z,1.20
2023-03-18T18:16:45.184Z,1.20
2023-03-18T18:19:33.843Z,1.10
2023-03-18T18:22:25.884Z,1.17
2023-03-18T18:25:18.523Z,1.27
2023-03-18T18:28:11.893Z,1.40
2023-03-18T18:30:59.836Z,1.40
2023-03-18T18:33:50.483Z,1.58
2023-03-18T18:36:37.937Z,1.40
2023-03-18T18:39:24.917Z,1.50
2023-03-18T18:42:12.503Z,1.80
2023-03-18T18:44:59.860Z,1.88
2023-03-18T18:47:47.594Z,1.60
2023-03-18T18:50:36.950Z,1.70
2023-03-18T18:53:26.317Z,2.00
2023-03-18T18:56:18.575Z,2.00
2023-03-18T18:59:23.059Z,2.00
2023-03-18T19:02:30.009Z,1.90
2023-03-18T19:05:17.666Z,1.60
2023-03-18T19:08:07.330Z,2.20
2023-03-18T19:10:56.488Z,2.83
2023-03-18T19:13:44.969Z,2.42
2023-03-18T19:16:33.961Z,3.45
2023-03-18T19:19:23.177Z,3.95
2023-03-18T19:22:14.412Z,4.90
2023-03-18T19:25:03.929Z,5.50
2023-03-18T19:27:51.385Z,6.00
2023-03-18T19:30:38.576Z,5.78
2023-03-18T19:33:26.646Z,6.10
2023-03-18T19:36:21.745Z,6.40
2023-03-18T19:39:15.408Z,8.15
2023-03-18T19:42:03.556Z,5.78
2023-03-18T19:44:51.020Z,8.38
2023-03-18T19:47:38.750Z,6.85
2023-03-18T19:50:25.859Z,5.77
2023-03-18T19:53:14.190Z,4.80
2023-03-18T19:56:03.633Z,3.47
2023-03-18T19:58:53.557Z,3.28
2023-03-18T20:01:41.045Z,3.08
2023-03-18T20:04:30.153Z,4.47
2023-03-18T20:07:18.250Z,4.22
2023-03-18T20:10:08.605Z,5.68
2023-03-18T20:12:55.538Z,7.82
2023-03-18T20:15:45.146Z,5.60
2023-03-18T20:18:32.751Z,8.85
2023-03-18T20:21:28.102Z,10.48
2023-03-18T20:24:17.545Z,7.97
2023-03-18T20:27:05.570Z,10.82
2023-03-18T20:29:53.189Z,8.25
2023-03-18T20:32:42.877Z,12.38
2023-03-18T20:35:32.845Z,13.18
2023-03-18T20:38:26.981Z,13.38
2023-03-18T20:41:17.395Z,12.80
2023-03-18T20:44:04.467Z,10.77
2023-03-18T20:46:52.119Z,9.30
2023-03-18T20:49:44.533Z,9.48
2023-03-18T20:52:32.169Z,8.48
2023-03-18T20:55:25.361Z,8.60
2023-03-18T20:58:16.132Z,6.63
2023-03-18T21:01:03.696Z,4.93
2023-03-18T21:03:51.074Z,4.03
2023-03-18T21:06:40.183Z,3.50
2023-03-18T21:09:27.097Z,3.65
2023-03-18T21:12:18.425Z,3.78
2023-03-18T21:15:08.020Z,3.88
2023-03-18T21:17:56.503Z,3.83
2023-03-18T21:20:44.851Z,3.90
2023-03-18T21:23:36.954Z,3.35
2023-03-18T21:26:26.128Z,3.67
2023-03-18T21:29:14.196Z,2.67
2023-03-18T21:32:03.128Z,2.80
2023-03-18T21:34:52.249Z,2.80
2023-03-18T21:37:39.675Z,2.92
2023-03-18T21:40:28.929Z,2.90
2023-03-18T21:43:34.073Z,3.03
2023-03-18T21:46:24.557Z,3.22
2023-03-18T21:49:11.975Z,3.90
2023-03-18T21:51:59.717Z,3.85
2023-03-18T21:54:47.149Z,4.00
2023-03-18T21:57:37.177Z,4.15
2023-03-18T22:00:25.416Z,5.30
2023-03-18T22:03:18.339Z,4.75
2023-03-18T22:06:05.689Z,5.00
2023-03-18T22:08:53.183Z,5.47
2023-03-18T22:11:40.570Z,6.13
2023-03-18T22:14:30.079Z,6.50
2023-03-18T22:17:21.967Z,6.68
2023-03-18T22:20:12.040Z,7.20
2023-03-18T22:22:59.851Z,7.22
2023-03-18T22:25:48.877Z,7.95
2023-03-18T22:28:37.006Z,8.10
2023-03-18T22:31:28.464Z,8.55
2023-03-18T22:34:22.339Z,8.52
2023-03-18T22:37:10.924Z,8.40
2023-03-18T22:40:00.807Z,9.02
2023-03-18T22:42:49.545Z,8.80
2023-03-18T22:45:39.094Z,9.27
2023-03-18T22:48:29.956Z,9.60
2023-03-18T22:51:22.113Z,10.27
2023-03-18T22:54:17.401Z,10.30
2023-03-18T22:57:05.573Z,10.80
2023-03-18T22:59:52.823Z,13.45
2023-03-18T23:02:40.922Z,12.27
2023-03-18T23:05:30.718Z,10.45
2023-03-18T23:08:18.161Z,12.53
2023-03-18T23:11:06.336Z,12.97
2023-03-18T23:13:54.569Z,10.98
2023-03-18T23:16:42.622Z,12.40
2023-03-18T23:19:30.486Z,13.55
2023-03-18T23:22:22.412Z,10.90
2023-03-18T23:25:14.483Z,11.23
2023-03-18T23:28:02.696Z,9.90
2023-03-18T23:30:52.454Z,10.00
2023-03-18T23:33:40.164Z,8.60
2023-03-18T23:36:27.531Z,9.55
2023-03-18T23:39:16.301Z,9.75
2023-03-18T23:42:04.180Z,14.57
2023-03-18T23:44:51.673Z,8.90
2023-03-18T23:47:39.064Z,12.20
2023-03-18T23:50:27.251Z,12.00
2023-03-18T23:53:16.305Z,12.53
2023-03-18T23:56:05.684Z,9.90
2023-03-18T23:58:53.131Z,10.05
